sensor_id;sensor_type;location;lat;lon;timestamp;P1;durP1;ratioP1;P2;durP2;ratioP2
9256;SDS011;4665;51.368;6.782;2023-11-19T00:01:22;3.53;;;3.23;;
9256;SDS011;4665;51.368;6.782;2023-11-19T00:03:47;3.63;;;3.40;;
9256;SDS011;4665;51.368;6.782;2023-11-19T00:06:13;3.37;;;3.07;;
9256;SDS011;4665;51.368;6.782;2023-11-19T00:08:38;3.47;;;3.03;;
9256;SDS011;4665;51.368;6.782;2023-11-19T00:11:03;3.23;;;2.93;;
9256;SDS011;4665;51.368;6.782;2023-11-19T00:13:29;2.80;;;2.60;;
9256;SDS011;4665;51.368;6.782;2023-11-19T00:15:54;2.93;;;2.73;;
9256;SDS011;4665;51.368;6.782;2023-11-19T00:18:19;2.20;;;1.97;;
9256;SDS011;4665;51.368;6.782;2023-11-19T00:20:45;2.30;;;2.20;;
9256;SDS011;4665;51.368;6.782;2023-11-19T00:23:10;2.20;;;2.10;;
9256;SDS011;4665;51.368;6.782;2023-11-19T00:25:35;2.50;;;2.30;;
9256;SDS011;4665;51.368;6.782;2023-11-19T00:28:00;2.40;;;2.20;;
9256;SDS011;4665;51.368;6.782;2023-11-19T00:30:26;4.33;;;2.33;;
9256;SDS011;4665;51.368;6.782;2023-11-19T00:32:51;3.27;;;1.93;;
9256;SDS011;4665;51.368;6.782;2023-11-19T00:35:16;2.10;;;2.00;;
9256;SDS011;4665;51.368;6.782;2023-11-19T00:37:41;2.00;;;1.90;;
9256;SDS011;4665;51.368;6.782;2023-11-19T00:40:07;2.40;;;1.73;;
9256;SDS011;4665;51.368;6.782;2023-11-19T00:42:35;3.33;;;2.20;;
9256;SDS011;4665;51.368;6.782;2023-11-19T00:45:00;2.20;;;2.10;;
9256;SDS011;4665;51.368;6.782;2023-11-19T00:47:26;2.20;;;2.10;;
9256;SDS011;4665;51.368;6.782;2023-11-19T00:49:51;3.40;;;2.30;;
9256;SDS011;4665;51.368;6.782;2023-11-19T00:52:17;2.60;;;2.10;;
9256;SDS011;4665;51.368;6.782;2023-11-19T00:54:43;2.63;;;2.43;;
9256;SDS011;4665;51.368;6.782;2023-11-19T00:57:08;2.90;;;2.67;;
9256;SDS011;4665;51.368;6.782;2023-11-19T00:59:33;2.67;;;2.47;;
9256;SDS011;4665;51.368;6.782;2023-11-19T01:01:59;2.97;;;2.70;;
9256;SDS011;4665;51.368;6.782;2023-11-19T01:04:28;2.73;;;2.50;;
9256;SDS011;4665;51.368;6.782;2023-11-19T01:06:53;2.70;;;2.50;;
9256;SDS011;4665;51.368;6.782;2023-11-19T01:09:19;2.70;;;2.60;;
9256;SDS011;4665;51.368;6.782;2023-11-19T01:11:44;2.60;;;2.40;;
9256;SDS011;4665;51.368;6.782;2023-11-19T01:14:10;2.67;;;2.47;;
9256;SDS011;4665;51.368;6.782;2023-11-19T01:16:35;2.17;;;2.07;;
9256;SDS011;4665;51.368;6.782;2023-11-19T01:19:00;2.37;;;2.27;;
9256;SDS011;4665;51.368;6.782;2023-11-19T01:21:29;2.23;;;2.07;;
9256;SDS011;4665;51.368;6.782;2023-11-19T01:23:54;2.10;;;2.00;;
9256;SDS011;4665;51.368;6.782;2023-11-19T01:26:20;4.47;;;2.17;;
9256;SDS011;4665;51.368;6.782;2023-11-19T01:28:45;2.30;;;2.10;;
9256;SDS011;4665;51.368;6.782;2023-11-19T01:31:11;2.10;;;2.00;;
9256;SDS011;4665;51.368;6.782;2023-11-19T01:33:37;2.73;;;2.00;;
9256;SDS011;4665;51.368;6.782;2023-11-19T01:36:03;2.30;;;2.20;;
9256;SDS011;4665;51.368;6.782;2023-11-19T01:38:29;2.03;;;1.93;;
9256;SDS011;4665;51.368;6.782;2023-11-19T01:40:56;2.27;;;2.10;;
9256;SDS011;4665;51.368;6.782;2023-11-19T01:43:34;2.17;;;2.07;;
9256;SDS011;4665;51.368;6.782;2023-11-19T01:46:00;2.30;;;2.20;;
9256;SDS011;4665;51.368;6.782;2023-11-19T01:48:26;2.47;;;2.30;;
9256;SDS011;4665;51.368;6.782;2023-11-19T01:50:51;1.80;;;1.70;;
9256;SDS011;4665;51.368;6.782;2023-11-19T01:53:17;3.17;;;2.10;;
9256;SDS011;4665;51.368;6.782;2023-11-19T01:55:43;2.03;;;1.93;;
9256;SDS011;4665;51.368;6.782;2023-11-19T01:58:08;2.00;;;1.90;;
9256;SDS011;4665;51.368;6.782;2023-11-19T02:00:33;4.27;;;1.80;;
9256;SDS011;4665;51.368;6.782;2023-11-19T02:02:59;2.03;;;1.83;;
9256;SDS011;4665;51.368;6.782;2023-11-19T02:05:25;2.20;;;2.03;;
9256;SDS011;4665;51.368;6.782;2023-11-19T02:07:51;1.70;;;1.60;;
9256;SDS011;4665;51.368;6.782;2023-11-19T02:10:17;2.33;;;1.90;;
9256;SDS011;4665;51.368;6.782;2023-11-19T02:12:44;2.23;;;1.83;;
9256;SDS011;4665;51.368;6.782;2023-11-19T02:15:10;2.00;;;1.60;;
9256;SDS011;4665;51.368;6.782;2023-11-19T02:17:35;3.63;;;1.80;;
9256;SDS011;4665;51.368;6.782;2023-11-19T02:20:02;1.90;;;1.70;;
9256;SDS011;4665;51.368;6.782;2023-11-19T02:22:28;1.97;;;1.80;;
9256;SDS011;4665;51.368;6.782;2023-11-19T02:24:58;3.73;;;1.90;;
9256;SDS011;4665;51.368;6.782;2023-11-19T02:28:09;2.37;;;1.80;;
9256;SDS011;4665;51.368;6.782;2023-11-19T02:30:10;2.57;;;1.73;;
9256;SDS011;4665;51.368;6.782;2023-11-19T02:32:36;2.27;;;1.83;;
9256;SDS011;4665;51.368;6.782;2023-11-19T02:35:05;5.50;;;2.10;;
9256;SDS011;4665;51.368;6.782;2023-11-19T02:37:32;2.87;;;1.50;;
9256;SDS011;4665;51.368;6.782;2023-11-19T02:39:58;2.20;;;1.67;;
9256;SDS011;4665;51.368;6.782;2023-11-19T02:42:34;3.77;;;2.10;;
9256;SDS011;4665;51.368;6.782;2023-11-19T02:44:59;6.00;;;1.90;;
9256;SDS011;4665;51.368;6.782;2023-11-19T02:47:24;5.23;;;1.90;;
9256;SDS011;4665;51.368;6.782;2023-11-19T02:49:50;5.13;;;2.30;;
9256;SDS011;4665;51.368;6.782;2023-11-19T02:52:15;2.20;;;2.00;;
9256;SDS011;4665;51.368;6.782;2023-11-19T02:54:40;2.13;;;1.97;;
9256;SDS011;4665;51.368;6.782;2023-11-19T02:57:06;4.43;;;2.17;;
9256;SDS011;4665;51.368;6.782;2023-11-19T02:59:33;3.77;;;2.30;;
9256;SDS011;4665;51.368;6.782;2023-11-19T03:02:04;5.53;;;2.43;;
9256;SDS011;4665;51.368;6.782;2023-11-19T03:04:31;5.13;;;2.20;;
9256;SDS011;4665;51.368;6.782;2023-11-19T03:06:56;6.00;;;2.40;;
9256;SDS011;4665;51.368;6.782;2023-11-19T03:09:23;2.70;;;2.27;;
9256;SDS011;4665;51.368;6.782;2023-11-19T03:11:49;5.67;;;2.80;;
9256;SDS011;4665;51.368;6.782;2023-11-19T03:14:14;5.63;;;2.73;;
9256;SDS011;4665;51.368;6.782;2023-11-19T03:16:39;3.70;;;2.73;;
9256;SDS011;4665;51.368;6.782;2023-11-19T03:19:05;3.57;;;2.50;;
9256;SDS011;4665;51.368;6.782;2023-11-19T03:21:30;8.10;;;2.67;;
9256;SDS011;4665;51.368;6.782;2023-11-19T03:23:56;8.50;;;3.10;;
9256;SDS011;4665;51.368;6.782;2023-11-19T03:26:21;5.77;;;2.77;;
9256;SDS011;4665;51.368;6.782;2023-11-19T03:28:47;9.37;;;2.70;;
9256;SDS011;4665;51.368;6.782;2023-11-19T03:31:12;9.43;;;3.30;;
9256;SDS011;4665;51.368;6.782;2023-11-19T03:33:37;8.70;;;3.13;;
9256;SDS011;4665;51.368;6.782;2023-11-19T03:36:03;8.70;;;3.30;;
9256;SDS011;4665;51.368;6.782;2023-11-19T03:38:28;6.77;;;3.10;;
9256;SDS011;4665;51.368;6.782;2023-11-19T03:40:53;8.17;;;3.37;;
9256;SDS011;4665;51.368;6.782;2023-11-19T03:43:19;8.57;;;2.97;;
9256;SDS011;4665;51.368;6.782;2023-11-19T03:45:44;10.73;;;3.40;;
9256;SDS011;4665;51.368;6.782;2023-11-19T03:48:09;6.50;;;3.33;;
9256;SDS011;4665;51.368;6.782;2023-11-19T03:50:34;13.40;;;3.97;;
9256;SDS011;4665;51.368;6.782;2023-11-19T03:53:00;9.57;;;3.87;;
9256;SDS011;4665;51.368;6.782;2023-11-19T03:55:25;11.37;;;3.63;;
9256;SDS011;4665;51.368;6.782;2023-11-19T03:57:50;12.30;;;3.77;;
9256;SDS011;4665;51.368;6.782;2023-11-19T04:00:15;9.47;;;3.53;;
9256;SDS011;4665;51.368;6.782;2023-11-19T04:02:41;11.93;;;3.73;;
9256;SDS011;4665;51.368;6.782;2023-11-19T04:05:07;7.27;;;3.90;;
9256;SDS011;4665;51.368;6.782;2023-11-19T04:07:32;9.37;;;3.10;;
9256;SDS011;4665;51.368;6.782;2023-11-19T04:09:57;14.50;;;3.53;;
9256;SDS011;4665;51.368;6.782;2023-11-19T04:12:23;12.73;;;3.57;;
9256;SDS011;4665;51.368;6.782;2023-11-19T04:14:48;14.00;;;3.53;;
9256;SDS011;4665;51.368;6.782;2023-11-19T04:17:13;7.93;;;3.20;;
9256;SDS011;4665;51.368;6.782;2023-11-19T04:19:38;13.37;;;3.60;;
9256;SDS011;4665;51.368;6.782;2023-11-19T04:22:06;10.33;;;3.30;;
9256;SDS011;4665;51.368;6.782;2023-11-19T04:24:31;20.00;;;4.00;;
9256;SDS011;4665;51.368;6.782;2023-11-19T04:26:57;11.03;;;3.17;;
9256;SDS011;4665;51.368;6.782;2023-11-19T04:29:22;9.10;;;3.40;;
9256;SDS011;4665;51.368;6.782;2023-11-19T04:31:48;16.00;;;3.97;;
9256;SDS011;4665;51.368;6.782;2023-11-19T04:34:13;14.63;;;3.43;;
9256;SDS011;4665;51.368;6.782;2023-11-19T04:36:38;15.10;;;3.17;;
9256;SDS011;4665;51.368;6.782;2023-11-19T04:39:04;8.43;;;3.40;;
9256;SDS011;4665;51.368;6.782;2023-11-19T04:41:49;10.13;;;3.50;;
9256;SDS011;4665;51.368;6.782;2023-11-19T04:44:16;15.33;;;3.70;;
9256;SDS011;4665;51.368;6.782;2023-11-19T04:46:42;15.27;;;3.20;;
9256;SDS011;4665;51.368;6.782;2023-11-19T04:49:10;12.40;;;3.27;;
9256;SDS011;4665;51.368;6.782;2023-11-19T04:51:42;13.70;;;3.63;;
9256;SDS011;4665;51.368;6.782;2023-11-19T04:54:08;6.47;;;2.80;;
9256;SDS011;4665;51.368;6.782;2023-11-19T04:56:34;8.67;;;2.70;;
9256;SDS011;4665;51.368;6.782;2023-11-19T04:59:00;11.20;;;2.93;;
9256;SDS011;4665;51.368;6.782;2023-11-19T05:01:25;12.87;;;4.07;;
9256;SDS011;4665;51.368;6.782;2023-11-19T05:03:50;14.33;;;3.53;;
9256;SDS011;4665;51.368;6.782;2023-11-19T05:06:16;14.80;;;3.70;;
9256;SDS011;4665;51.368;6.782;2023-11-19T05:08:41;12.87;;;3.00;;
9256;SDS011;4665;51.368;6.782;2023-11-19T05:11:06;15.33;;;3.30;;
9256;SDS011;4665;51.368;6.782;2023-11-19T05:13:32;10.10;;;3.50;;
9256;SDS011;4665;51.368;6.782;2023-11-19T05:15:57;14.67;;;3.77;;
9256;SDS011;4665;51.368;6.782;2023-11-19T05:18:22;10.67;;;3.23;;
9256;SDS011;4665;51.368;6.782;2023-11-19T05:20:48;13.07;;;3.93;;
9256;SDS011;4665;51.368;6.782;2023-11-19T05:23:13;11.10;;;3.40;;
9256;SDS011;4665;51.368;6.782;2023-11-19T05:25:38;9.77;;;3.57;;
9256;SDS011;4665;51.368;6.782;2023-11-19T05:28:04;10.07;;;4.07;;
9256;SDS011;4665;51.368;6.782;2023-11-19T05:30:29;15.67;;;3.50;;
9256;SDS011;4665;51.368;6.782;2023-11-19T05:32:54;9.53;;;3.00;;
9256;SDS011;4665;51.368;6.782;2023-11-19T05:35:19;12.80;;;2.93;;
9256;SDS011;4665;51.368;6.782;2023-11-19T05:37:45;15.67;;;3.53;;
9256;SDS011;4665;51.368;6.782;2023-11-19T05:40:10;8.97;;;2.90;;
9256;SDS011;4665;51.368;6.782;2023-11-19T05:42:41;7.83;;;2.50;;
9256;SDS011;4665;51.368;6.782;2023-11-19T05:45:06;8.00;;;3.13;;
9256;SDS011;4665;51.368;6.782;2023-11-19T05:47:32;11.10;;;3.17;;
9256;SDS011;4665;51.368;6.782;2023-11-19T05:49:58;11.97;;;2.57;;
9256;SDS011;4665;51.368;6.782;2023-11-19T05:52:23;6.10;;;2.87;;
9256;SDS011;4665;51.368;6.782;2023-11-19T05:54:48;11.43;;;3.50;;
9256;SDS011;4665;51.368;6.782;2023-11-19T05:57:16;9.13;;;2.83;;
9256;SDS011;4665;51.368;6.782;2023-11-19T05:59:45;10.23;;;3.77;;
9256;SDS011;4665;51.368;6.782;2023-11-19T06:02:10;9.53;;;3.33;;
9256;SDS011;4665;51.368;6.782;2023-11-19T06:04:35;14.30;;;3.30;;
9256;SDS011;4665;51.368;6.782;2023-11-19T06:07:01;11.47;;;3.20;;
9256;SDS011;4665;51.368;6.782;2023-11-19T06:09:26;12.73;;;2.73;;
9256;SDS011;4665;51.368;6.782;2023-11-19T06:11:51;16.60;;;3.90;;
9256;SDS011;4665;51.368;6.782;2023-11-19T06:14:17;12.90;;;3.63;;
9256;SDS011;4665;51.368;6.782;2023-11-19T06:16:42;9.77;;;3.33;;
9256;SDS011;4665;51.368;6.782;2023-11-19T06:19:09;9.70;;;3.20;;
9256;SDS011;4665;51.368;6.782;2023-11-19T06:21:36;7.50;;;2.97;;
9256;SDS011;4665;51.368;6.782;2023-11-19T06:24:02;7.53;;;2.83;;
9256;SDS011;4665;51.368;6.782;2023-11-19T06:26:27;10.77;;;3.70;;
9256;SDS011;4665;51.368;6.782;2023-11-19T06:28:52;11.97;;;3.23;;
9256;SDS011;4665;51.368;6.782;2023-11-19T06:31:17;15.27;;;3.47;;
9256;SDS011;4665;51.368;6.782;2023-11-19T06:33:43;9.43;;;2.70;;
9256;SDS011;4665;51.368;6.782;2023-11-19T06:36:08;10.70;;;2.80;;
9256;SDS011;4665;51.368;6.782;2023-11-19T06:38:34;8.87;;;3.23;;
9256;SDS011;4665;51.368;6.782;2023-11-19T06:40:59;11.40;;;3.17;;
9256;SDS011;4665;51.368;6.782;2023-11-19T06:43:24;11.10;;;3.40;;
9256;SDS011;4665;51.368;6.782;2023-11-19T06:45:50;9.77;;;3.60;;
9256;SDS011;4665;51.368;6.782;2023-11-19T06:48:16;7.67;;;2.87;;
9256;SDS011;4665;51.368;6.782;2023-11-19T06:50:41;7.73;;;2.83;;
9256;SDS011;4665;51.368;6.782;2023-11-19T06:53:06;10.10;;;3.17;;
9256;SDS011;4665;51.368;6.782;2023-11-19T06:55:35;10.83;;;3.27;;
9256;SDS011;4665;51.368;6.782;2023-11-19T06:58:00;13.63;;;3.30;;
9256;SDS011;4665;51.368;6.782;2023-11-19T07:00:27;14.50;;;3.03;;
9256;SDS011;4665;51.368;6.782;2023-11-19T07:02:52;7.03;;;2.43;;
9256;SDS011;4665;51.368;6.782;2023-11-19T07:05:18;11.23;;;2.97;;
9256;SDS011;4665;51.368;6.782;2023-11-19T07:07:43;10.03;;;2.93;;
9256;SDS011;4665;51.368;6.782;2023-11-19T07:10:08;12.53;;;3.50;;
9256;SDS011;4665;51.368;6.782;2023-11-19T07:12:34;10.03;;;2.77;;
9256;SDS011;4665;51.368;6.782;2023-11-19T07:15:00;10.90;;;3.87;;
9256;SDS011;4665;51.368;6.782;2023-11-19T07:17:27;13.90;;;3.33;;
9256;SDS011;4665;51.368;6.782;2023-11-19T07:19:52;9.90;;;3.40;;
9256;SDS011;4665;51.368;6.782;2023-11-19T07:22:17;10.73;;;3.50;;
9256;SDS011;4665;51.368;6.782;2023-11-19T07:24:42;11.80;;;2.73;;
9256;SDS011;4665;51.368;6.782;2023-11-19T07:27:08;12.80;;;3.43;;
9256;SDS011;4665;51.368;6.782;2023-11-19T07:29:34;8.13;;;2.63;;
9256;SDS011;4665;51.368;6.782;2023-11-19T07:31:59;19.37;;;3.73;;
9256;SDS011;4665;51.368;6.782;2023-11-19T07:34:27;15.63;;;3.60;;
9256;SDS011;4665;51.368;6.782;2023-11-19T07:36:52;11.60;;;2.83;;
9256;SDS011;4665;51.368;6.782;2023-11-19T07:39:17;9.20;;;2.83;;
9256;SDS011;4665;51.368;6.782;2023-11-19T07:41:42;13.93;;;3.30;;
9256;SDS011;4665;51.368;6.782;2023-11-19T07:44:08;10.57;;;3.13;;
9256;SDS011;4665;51.368;6.782;2023-11-19T07:46:33;6.97;;;2.53;;
9256;SDS011;4665;51.368;6.782;2023-11-19T07:48:58;7.93;;;2.87;;
9256;SDS011;4665;51.368;6.782;2023-11-19T07:51:24;9.53;;;3.27;;
9256;SDS011;4665;51.368;6.782;2023-11-19T07:53:49;10.03;;;3.00;;
9256;SDS011;4665;51.368;6.782;2023-11-19T07:56:14;17.33;;;3.00;;
9256;SDS011;4665;51.368;6.782;2023-11-19T07:58:40;12.17;;;3.30;;
9256;SDS011;4665;51.368;6.782;2023-11-19T08:01:05;14.77;;;2.97;;
9256;SDS011;4665;51.368;6.782;2023-11-19T08:03:31;10.97;;;2.80;;
9256;SDS011;4665;51.368;6.782;2023-11-19T08:05:59;15.43;;;3.63;;
9256;SDS011;4665;51.368;6.782;2023-11-19T08:08:24;14.80;;;3.50;;
9256;SDS011;4665;51.368;6.782;2023-11-19T08:10:49;16.93;;;3.60;;
9256;SDS011;4665;51.368;6.782;2023-11-19T08:13:16;12.27;;;3.50;;
9256;SDS011;4665;51.368;6.782;2023-11-19T08:15:41;18.27;;;2.80;;
9256;SDS011;4665;51.368;6.782;2023-11-19T08:18:07;14.93;;;3.80;;
9256;SDS011;4665;51.368;6.782;2023-11-19T08:20:34;9.50;;;3.47;;
9256;SDS011;4665;51.368;6.782;2023-11-19T08:22:59;16.63;;;3.67;;
9256;SDS011;4665;51.368;6.782;2023-11-19T08:25:24;9.60;;;2.80;;
9256;SDS011;4665;51.368;6.782;2023-11-19T08:27:49;8.73;;;2.93;;
9256;SDS011;4665;51.368;6.782;2023-11-19T08:30:14;13.57;;;3.50;;
9256;SDS011;4665;51.368;6.782;2023-11-19T08:32:40;13.10;;;3.07;;
9256;SDS011;4665;51.368;6.782;2023-11-19T08:35:05;11.27;;;3.37;;
9256;SDS011;4665;51.368;6.782;2023-11-19T08:37:31;17.60;;;3.37;;
9256;SDS011;4665;51.368;6.782;2023-11-19T08:39:56;8.93;;;2.87;;
9256;SDS011;4665;51.368;6.782;2023-11-19T08:42:21;11.70;;;3.00;;
9256;SDS011;4665;51.368;6.782;2023-11-19T08:44:50;13.67;;;3.23;;
9256;SDS011;4665;51.368;6.782;2023-11-19T08:47:16;11.67;;;2.83;;
9256;SDS011;4665;51.368;6.782;2023-11-19T08:49:43;11.60;;;2.60;;
9256;SDS011;4665;51.368;6.782;2023-11-19T08:52:08;12.13;;;2.80;;
9256;SDS011;4665;51.368;6.782;2023-11-19T08:54:33;15.57;;;3.27;;
9256;SDS011;4665;51.368;6.782;2023-11-19T08:56:58;10.40;;;3.50;;
9256;SDS011;4665;51.368;6.782;2023-11-19T08:59:24;10.93;;;2.80;;
9256;SDS011;4665;51.368;6.782;2023-11-19T09:01:49;14.40;;;3.80;;
9256;SDS011;4665;51.368;6.782;2023-11-19T09:04:15;11.00;;;3.23;;
9256;SDS011;4665;51.368;6.782;2023-11-19T09:06:41;11.13;;;2.97;;
9256;SDS011;4665;51.368;6.782;2023-11-19T09:09:07;20.67;;;3.97;;
9256;SDS011;4665;51.368;6.782;2023-11-19T09:11:32;10.90;;;3.30;;
9256;SDS011;4665;51.368;6.782;2023-11-19T09:13:58;15.80;;;3.50;;
9256;SDS011;4665;51.368;6.782;2023-11-19T09:16:23;10.93;;;3.20;;
9256;SDS011;4665;51.368;6.782;2023-11-19T09:18:49;12.40;;;3.60;;
9256;SDS011;4665;51.368;6.782;2023-11-19T09:21:14;8.77;;;2.90;;
9256;SDS011;4665;51.368;6.782;2023-11-19T09:23:39;13.80;;;3.37;;
9256;SDS011;4665;51.368;6.782;2023-11-19T09:26:05;12.33;;;3.47;;
9256;SDS011;4665;51.368;6.782;2023-11-19T09:28:31;9.70;;;3.43;;
9256;SDS011;4665;51.368;6.782;2023-11-19T09:30:56;10.60;;;3.80;;
9256;SDS011;4665;51.368;6.782;2023-11-19T09:33:21;14.10;;;3.53;;
9256;SDS011;4665;51.368;6.782;2023-11-19T09:35:46;17.17;;;3.70;;
9256;SDS011;4665;51.368;6.782;2023-11-19T09:38:14;8.53;;;2.90;;
9256;SDS011;4665;51.368;6.782;2023-11-19T09:40:39;14.57;;;3.67;;
9256;SDS011;4665;51.368;6.782;2023-11-19T09:43:04;11.23;;;3.20;;
9256;SDS011;4665;51.368;6.782;2023-11-19T09:45:30;17.43;;;4.00;;
9256;SDS011;4665;51.368;6.782;2023-11-19T09:47:57;14.40;;;3.40;;
9256;SDS011;4665;51.368;6.782;2023-11-19T09:50:25;11.00;;;3.40;;
9256;SDS011;4665;51.368;6.782;2023-11-19T09:52:50;15.07;;;4.13;;
9256;SDS011;4665;51.368;6.782;2023-11-19T09:55:15;15.33;;;3.83;;
9256;SDS011;4665;51.368;6.782;2023-11-19T09:57:41;10.10;;;3.40;;
9256;SDS011;4665;51.368;6.782;2023-11-19T10:00:09;13.30;;;3.33;;
9256;SDS011;4665;51.368;6.782;2023-11-19T10:02:36;10.43;;;2.80;;
9256;SDS011;4665;51.368;6.782;2023-11-19T10:05:03;11.33;;;3.67;;
9256;SDS011;4665;51.368;6.782;2023-11-19T10:07:30;18.77;;;4.27;;
9256;SDS011;4665;51.368;6.782;2023-11-19T10:09:57;14.30;;;3.23;;
9256;SDS011;4665;51.368;6.782;2023-11-19T10:12:23;13.07;;;3.00;;
9256;SDS011;4665;51.368;6.782;2023-11-19T10:14:48;11.90;;;3.00;;
9256;SDS011;4665;51.368;6.782;2023-11-19T10:17:13;12.30;;;3.60;;
9256;SDS011;4665;51.368;6.782;2023-11-19T10:19:39;14.27;;;4.20;;
9256;SDS011;4665;51.368;6.782;2023-11-19T10:22:05;11.83;;;3.57;;
9256;SDS011;4665;51.368;6.782;2023-11-19T10:24:31;16.63;;;3.57;;
9256;SDS011;4665;51.368;6.782;2023-11-19T10:26:56;20.43;;;3.77;;
9256;SDS011;4665;51.368;6.782;2023-11-19T10:29:21;9.90;;;3.20;;
9256;SDS011;4665;51.368;6.782;2023-11-19T10:31:55;19.83;;;3.60;;
9256;SDS011;4665;51.368;6.782;2023-11-19T10:34:24;19.03;;;3.83;;
9256;SDS011;4665;51.368;6.782;2023-11-19T10:36:50;10.77;;;3.10;;
9256;SDS011;4665;51.368;6.782;2023-11-19T10:39:15;13.70;;;3.60;;
9256;SDS011;4665;51.368;6.782;2023-11-19T10:41:40;12.10;;;2.97;;
9256;SDS011;4665;51.368;6.782;2023-11-19T10:44:05;11.87;;;3.00;;
9256;SDS011;4665;51.368;6.782;2023-11-19T10:46:41;10.87;;;2.90;;
9256;SDS011;4665;51.368;6.782;2023-11-19T10:49:06;10.67;;;2.87;;
9256;SDS011;4665;51.368;6.782;2023-11-19T10:51:32;9.70;;;2.90;;
9256;SDS011;4665;51.368;6.782;2023-11-19T10:53:59;7.43;;;2.67;;
9256;SDS011;4665;51.368;6.782;2023-11-19T10:56:26;10.00;;;3.07;;
9256;SDS011;4665;51.368;6.782;2023-11-19T10:58:55;11.00;;;2.77;;
9256;SDS011;4665;51.368;6.782;2023-11-19T11:01:24;12.50;;;3.67;;
9256;SDS011;4665;51.368;6.782;2023-11-19T11:03:51;10.97;;;3.10;;
9256;SDS011;4665;51.368;6.782;2023-11-19T11:06:18;8.97;;;2.57;;
9256;SDS011;4665;51.368;6.782;2023-11-19T11:08:43;13.73;;;3.23;;
9256;SDS011;4665;51.368;6.782;2023-11-19T11:11:10;10.00;;;3.17;;
9256;SDS011;4665;51.368;6.782;2023-11-19T11:13:38;12.37;;;2.80;;
9256;SDS011;4665;51.368;6.782;2023-11-19T11:16:04;9.97;;;2.93;;
9256;SDS011;4665;51.368;6.782;2023-11-19T11:18:31;11.83;;;3.07;;
9256;SDS011;4665;51.368;6.782;2023-11-19T11:20:59;10.40;;;3.20;;
9256;SDS011;4665;51.368;6.782;2023-11-19T11:39:30;5.47;;;2.70;;
9256;SDS011;4665;51.368;6.782;2023-11-19T11:42:38;11.50;;;2.80;;
9256;SDS011;4665;51.368;6.782;2023-11-19T11:48:30;11.00;;;3.30;;
9256;SDS011;4665;51.368;6.782;2023-11-19T11:50:24;9.70;;;2.73;;
9256;SDS011;4665;51.368;6.782;2023-11-19T11:57:58;11.50;;;2.70;;
9256;SDS011;4665;51.368;6.782;2023-11-19T12:02:54;7.93;;;2.63;;
9256;SDS011;4665;51.368;6.782;2023-11-19T12:05:19;10.77;;;3.10;;
9256;SDS011;4665;51.368;6.782;2023-11-19T12:07:54;11.83;;;2.83;;
9256;SDS011;4665;51.368;6.782;2023-11-19T12:10:19;13.13;;;3.27;;
9256;SDS011;4665;51.368;6.782;2023-11-19T12:12:46;8.50;;;2.73;;
9256;SDS011;4665;51.368;6.782;2023-11-19T12:15:12;9.00;;;2.87;;
9256;SDS011;4665;51.368;6.782;2023-11-19T12:17:43;9.30;;;2.43;;
9256;SDS011;4665;51.368;6.782;2023-11-19T12:20:09;12.13;;;2.60;;
9256;SDS011;4665;51.368;6.782;2023-11-19T12:22:40;13.70;;;3.03;;
9256;SDS011;4665;51.368;6.782;2023-11-19T12:25:06;7.93;;;2.63;;
9256;SDS011;4665;51.368;6.782;2023-11-19T12:27:31;11.07;;;3.00;;
9256;SDS011;4665;51.368;6.782;2023-11-19T12:29:58;5.53;;;2.53;;
9256;SDS011;4665;51.368;6.782;2023-11-19T12:32:24;18.13;;;3.00;;
9256;SDS011;4665;51.368;6.782;2023-11-19T12:34:49;7.10;;;2.60;;
9256;SDS011;4665;51.368;6.782;2023-11-19T12:37:15;7.93;;;2.53;;
9256;SDS011;4665;51.368;6.782;2023-11-19T12:39:40;8.37;;;2.53;;
9256;SDS011;4665;51.368;6.782;2023-11-19T12:42:05;10.23;;;3.27;;
9256;SDS011;4665;51.368;6.782;2023-11-19T12:44:30;5.07;;;2.30;;
9256;SDS011;4665;51.368;6.782;2023-11-19T12:47:03;10.97;;;2.87;;
9256;SDS011;4665;51.368;6.782;2023-11-19T12:49:28;7.30;;;2.30;;
9256;SDS011;4665;51.368;6.782;2023-11-19T12:51:53;7.63;;;2.40;;
9256;SDS011;4665;51.368;6.782;2023-11-19T12:54:19;6.33;;;2.73;;
9256;SDS011;4665;51.368;6.782;2023-11-19T12:56:53;9.40;;;2.40;;
9256;SDS011;4665;51.368;6.782;2023-11-19T12:59:19;8.57;;;2.43;;
9256;SDS011;4665;51.368;6.782;2023-11-19T13:01:54;7.80;;;2.93;;
9256;SDS011;4665;51.368;6.782;2023-11-19T13:04:20;10.47;;;2.23;;
9256;SDS011;4665;51.368;6.782;2023-11-19T13:06:45;7.57;;;2.77;;
9256;SDS011;4665;51.368;6.782;2023-11-19T13:09:21;5.23;;;2.00;;
9256;SDS011;4665;51.368;6.782;2023-11-19T13:11:46;8.90;;;2.03;;
9256;SDS011;4665;51.368;6.782;2023-11-19T13:14:11;9.00;;;2.80;;
9256;SDS011;4665;51.368;6.782;2023-11-19T13:16:37;7.63;;;2.60;;
9256;SDS011;4665;51.368;6.782;2023-11-19T13:19:03;7.00;;;2.60;;
9256;SDS011;4665;51.368;6.782;2023-11-19T13:21:29;7.27;;;2.30;;
9256;SDS011;4665;51.368;6.782;2023-11-19T13:23:57;11.83;;;3.43;;
9256;SDS011;4665;51.368;6.782;2023-11-19T13:26:22;12.47;;;3.07;;
9256;SDS011;4665;51.368;6.782;2023-11-19T13:28:48;6.53;;;2.30;;
9256;SDS011;4665;51.368;6.782;2023-11-19T13:31:14;9.57;;;2.83;;
9256;SDS011;4665;51.368;6.782;2023-11-19T13:33:39;15.67;;;3.77;;
9256;SDS011;4665;51.368;6.782;2023-11-19T13:36:04;8.97;;;2.67;;
9256;SDS011;4665;51.368;6.782;2023-11-19T13:38:36;10.27;;;2.57;;
9256;SDS011;4665;51.368;6.782;2023-11-19T13:41:01;6.13;;;2.83;;
9256;SDS011;4665;51.368;6.782;2023-11-19T13:43:27;7.97;;;2.40;;
9256;SDS011;4665;51.368;6.782;2023-11-19T13:45:55;13.93;;;3.30;;
9256;SDS011;4665;51.368;6.782;2023-11-19T13:48:21;8.73;;;2.80;;
9256;SDS011;4665;51.368;6.782;2023-11-19T13:50:47;6.97;;;2.40;;
9256;SDS011;4665;51.368;6.782;2023-11-19T13:53:12;6.90;;;2.40;;
9256;SDS011;4665;51.368;6.782;2023-11-19T13:55:37;12.73;;;2.80;;
9256;SDS011;4665;51.368;6.782;2023-11-19T13:58:03;5.57;;;2.53;;
9256;SDS011;4665;51.368;6.782;2023-11-19T14:00:28;8.57;;;2.60;;
9256;SDS011;4665;51.368;6.782;2023-11-19T14:02:53;8.97;;;3.07;;
9256;SDS011;4665;51.368;6.782;2023-11-19T14:05:18;6.83;;;2.07;;
9256;SDS011;4665;51.368;6.782;2023-11-19T14:07:44;9.33;;;3.40;;
9256;SDS011;4665;51.368;6.782;2023-11-19T14:10:10;11.63;;;2.93;;
9256;SDS011;4665;51.368;6.782;2023-11-19T14:12:38;8.93;;;2.67;;
9256;SDS011;4665;51.368;6.782;2023-11-19T14:15:04;6.03;;;2.37;;
9256;SDS011;4665;51.368;6.782;2023-11-19T14:17:31;8.10;;;2.20;;
9256;SDS011;4665;51.368;6.782;2023-11-19T14:19:56;11.33;;;2.63;;
9256;SDS011;4665;51.368;6.782;2023-11-19T14:22:22;10.43;;;3.10;;
9256;SDS011;4665;51.368;6.782;2023-11-19T14:24:47;7.40;;;3.20;;
9256;SDS011;4665;51.368;6.782;2023-11-19T14:27:12;15.33;;;3.67;;
9256;SDS011;4665;51.368;6.782;2023-11-19T14:29:38;12.13;;;3.40;;
9256;SDS011;4665;51.368;6.782;2023-11-19T14:32:04;10.73;;;3.10;;
9256;SDS011;4665;51.368;6.782;2023-11-19T14:34:30;6.43;;;2.53;;
9256;SDS011;4665;51.368;6.782;2023-11-19T14:36:55;11.60;;;2.40;;
9256;SDS011;4665;51.368;6.782;2023-11-19T14:39:20;5.77;;;2.70;;
9256;SDS011;4665;51.368;6.782;2023-11-19T14:41:46;7.23;;;2.60;;
9256;SDS011;4665;51.368;6.782;2023-11-19T14:44:11;10.67;;;2.70;;
9256;SDS011;4665;51.368;6.782;2023-11-19T14:46:36;6.50;;;2.53;;
9256;SDS011;4665;51.368;6.782;2023-11-19T14:49:02;7.87;;;2.87;;
9256;SDS011;4665;51.368;6.782;2023-11-19T14:51:28;11.67;;;2.93;;
9256;SDS011;4665;51.368;6.782;2023-11-19T14:53:54;6.43;;;2.53;;
9256;SDS011;4665;51.368;6.782;2023-11-19T14:56:19;8.80;;;2.63;;
9256;SDS011;4665;51.368;6.782;2023-11-19T14:58:44;8.63;;;2.43;;
9256;SDS011;4665;51.368;6.782;2023-11-19T15:01:13;8.67;;;2.37;;
9256;SDS011;4665;51.368;6.782;2023-11-19T15:03:38;6.97;;;2.40;;
9256;SDS011;4665;51.368;6.782;2023-11-19T15:06:04;6.40;;;2.40;;
9256;SDS011;4665;51.368;6.782;2023-11-19T15:08:29;6.23;;;2.50;;
9256;SDS011;4665;51.368;6.782;2023-11-19T15:10:55;5.97;;;2.03;;
9256;SDS011;4665;51.368;6.782;2023-11-19T15:13:22;7.30;;;2.87;;
9256;SDS011;4665;51.368;6.782;2023-11-19T15:15:47;10.40;;;2.87;;
9256;SDS011;4665;51.368;6.782;2023-11-19T15:18:13;8.97;;;2.73;;
9256;SDS011;4665;51.368;6.782;2023-11-19T15:20:38;8.03;;;2.20;;
9256;SDS011;4665;51.368;6.782;2023-11-19T15:23:03;7.93;;;2.40;;
9256;SDS011;4665;51.368;6.782;2023-11-19T15:25:29;7.93;;;2.80;;
9256;SDS011;4665;51.368;6.782;2023-11-19T15:27:54;6.47;;;2.43;;
9256;SDS011;4665;51.368;6.782;2023-11-19T15:30:23;5.90;;;2.40;;